Terminal Aerodrome Forecast
Issued by NWS

Home | Current Version | Previous Version | Text Only | Print | Product List | Glossary On
Versions: 1 2 3 4 5 6 7 8 9 10 11 12 13 14 15 16 17 18 19 20 21 22 23 24 25 26 27 28 29 30 31 32 33 34 35 36
000
FTUS45 KGGW 311100
TAFOLF
TAF
KOLF 311120Z 3112/0112 07017KT 6SM BR OVC006
     FM311500 06020KT 1SM -SN BR OVC004
     FM312000 06023KT 4SM -SN BLSN OVC003
     FM010000 06012KT 1SM BR OVC001
     FM010800 VRB04KT 2SM BR OVC020=

USA.gov is the U.S. government's official web portal to all federal, state and local government web resources and services.